This is the latest recevied weather packets stored in our database for station/object VK3HUG-13. If no packets are shown the sender has not sent any weather packets the latest 10 day(s).
| Time | Temp. | Humidity | Pressure | Rain* | Wind** | Luminosity | Snow |
|---|---|---|---|---|---|---|---|
| 1787866206 | - | - | 1029.4 hPa | 0 mm | - | - | - |
| 1787864413 | - | - | 1029.4 hPa | 0 mm | - | - | - |
| 1787861707 | 5.56° C | 87% | 1029.7 hPa | 0 mm | - | - | - |
| 1787858108 | - | - | 1028.3 hPa | 0 mm | - | - | - |
| 1787832907 | 7.78° C | 87% | 1030.4 hPa | 0 mm | - | - | - |
| 1787832006 | 7.78° C | 87% | 1030.4 hPa | 0 mm | - | - | - |
| 1787831107 | 7.78° C | 87% | 1030.4 hPa | 0 mm | - | - | - |
| 1787824807 | 8.89° C | 84% | 1029.2 hPa | 0 mm | - | - | - |
| 1787814007 | 13.33° C | 65% | 1027.5 hPa | 0 mm | - | - | - |
| 1787813106 | 15° C | 59% | 1027.3 hPa | 0 mm | - | - | - |
| 1787811307 | 17.22° C | 52% | 1027 hPa | 0 mm | - | - | - |
| 1787810406 | 17.78° C | 51% | 1026.9 hPa | 0 mm | - | - | - |
| 1787809507 | 19.44° C | 50% | 1026.7 hPa | 0 mm | - | - | - |
| 1787808606 | 18.33° C | 50% | 1026.8 hPa | 0 mm | - | - | - |
| 1787807707 | 16.11° C | 56% | 1027.1 hPa | 0 mm | - | - | - |
| 1787806808 | 14.44° C | 64% | 1027.4 hPa | 0 mm | - | - | - |
| 1787805907 | 13.89° C | 64% | 1027.5 hPa | 0 mm | - | - | - |
| 1787805007 | 13.33° C | 65% | 1027.5 hPa | 0 mm | - | - | - |
| 1787804107 | 13.33° C | 68% | 1027.5 hPa | 0 mm | - | - | - |
| 1787803206 | 13.33° C | 68% | 1027.5 hPa | 0 mm | - | - | - |
| 1787802306 | 12.78° C | 68% | 1027.6 hPa | 0 mm | - | - | - |
| 1787801408 | 12.78° C | 67% | 1028.6 hPa | 0 mm | - | - | - |
| 1787798707 | 11.67° C | 66% | 1028.8 hPa | 0 mm | - | - | - |
| 1787797806 | 12.22° C | 65% | 1029.8 hPa | 0 mm | - | - | - |
| 1787796907 | 12.78° C | 62% | 1029.7 hPa | 0 mm | - | - | - |
* Rain latest 24 hours (hover to see other rain measurements)
** Current wind speed in m/s (hover to see current wind gust speed)